Time;durP1;ratioP1;P1;durP2;ratioP2;P2;SDS_P1;SDS_P2;PMS_P1;PMS_P2;Temp;Humidity;BMP_temperature;BMP_pressure;BME280_temperature;BME280_humidity;BME280_pressure;Samples;Min_cycle;Max_cycle;Signal;HPM_P1;HPM_P2
2022/02/22 00:02:03;;;;;;;6.00;2.40;;;5.50;99.90;;;;;;5050216;28;20448;-47
2022/02/22 00:04:33;;;;;;;2.90;1.10;;;5.50;99.90;;;;;;5051899;28;21032;-45
2022/02/22 00:07:01;;;;;;;12.53;1.30;;;5.50;99.90;;;;;;5052036;28;20452;-48
2022/02/22 00:09:28;;;;;;;14.70;1.87;;;5.60;99.90;;;;;;5052562;28;20465;-49
2022/02/22 00:11:54;;;;;;;1.07;0.77;;;5.50;99.90;;;;;;5053014;28;20436;-46
2022/02/22 00:14:21;;;;;;;2.60;1.23;;;5.50;99.90;;;;;;5052434;28;20444;-43
2022/02/22 00:16:48;;;;;;;6.40;1.20;;;5.50;99.90;;;;;;5050785;28;20491;-46
2022/02/22 00:19:15;;;;;;;4.00;1.60;;;5.50;99.90;;;;;;5052030;28;20812;-45
2022/02/22 00:21:41;;;;;;;1.60;1.17;;;5.50;99.90;;;;;;5053768;28;20526;-48
2022/02/22 00:24:09;;;;;;;8.30;1.60;;;5.50;99.90;;;;;;5052066;28;20475;-48
2022/02/22 00:26:36;;;;;;;4.10;1.33;;;5.50;99.90;;;;;;5050456;28;20810;-51
2022/02/22 00:29:03;;;;;;;2.10;1.30;;;5.50;99.90;;;;;;5049899;28;20495;-50
2022/02/22 00:31:30;;;;;;;5.13;1.23;;;5.50;99.90;;;;;;5050711;28;20490;-47
2022/02/22 00:33:56;;;;;;;7.43;1.13;;;5.50;99.90;;;;;;5052000;28;20500;-48
2022/02/22 00:36:23;;;;;;;3.80;1.27;;;5.60;99.90;;;;;;5052694;28;20455;-46
2022/02/22 00:38:52;;;;;;;5.87;1.50;;;5.50;99.90;;;;;;5052633;28;20455;-49
2022/02/22 00:41:24;;;;;;;1.23;0.50;;;5.50;99.90;;;;;;5052014;28;20456;-45
2022/02/22 00:43:51;;;;;;;4.30;2.83;;;5.50;99.90;;;;;;5052059;28;20433;-46
2022/02/22 00:46:17;;;;;;;1.27;0.90;;;5.50;99.90;;;;;;5051467;28;20491;-46
2022/02/22 00:48:44;;;;;;;1.20;0.83;;;5.50;99.90;;;;;;5052022;28;20440;-48
2022/02/22 00:51:11;;;;;;;6.07;1.40;;;5.60;99.90;;;;;;5052879;28;21017;-49
2022/02/22 00:53:38;;;;;;;1.80;1.00;;;5.60;99.90;;;;;;5052113;28;20441;-47
2022/02/22 00:56:05;;;;;;;1.77;1.27;;;5.60;99.90;;;;;;5050579;28;20956;-49
2022/02/22 00:58:33;;;;;;;1.50;1.23;;;5.60;99.90;;;;;;5051349;28;20476;-46
2022/02/22 01:01:00;;;;;;;1.80;0.83;;;5.60;99.90;;;;;;5050707;28;20465;-46
2022/02/22 01:03:26;;;;;;;10.03;2.07;;;5.60;99.90;;;;;;5050277;28;20448;-49
2022/02/22 01:05:53;;;;;;;2.00;1.53;;;5.70;99.90;;;;;;5050159;28;20575;-51
2022/02/22 01:08:19;;;;;;;1.43;0.70;;;5.70;99.90;;;;;;5050512;28;20480;-46
2022/02/22 01:10:46;;;;;;;1.10;0.90;;;5.70;99.90;;;;;;5051484;28;20468;-45
2022/02/22 01:13:14;;;;;;;2.20;1.80;;;5.60;99.90;;;;;;5050877;28;20480;-45
2022/02/22 01:15:43;;;;;;;4.53;1.77;;;5.60;99.90;;;;;;5050506;28;20462;-47
2022/02/22 01:18:09;;;;;;;3.57;1.13;;;5.60;99.90;;;;;;5050821;28;20448;-46
2022/02/22 01:20:36;;;;;;;1.43;1.30;;;5.60;99.90;;;;;;5052520;28;20465;-46
2022/02/22 01:23:03;;;;;;;6.60;0.97;;;5.70;99.90;;;;;;5049575;28;20460;-47
2022/02/22 01:25:30;;;;;;;2.50;1.00;;;5.70;99.90;;;;;;5047611;28;20487;-47
2022/02/22 01:27:56;;;;;;;1.20;1.00;;;5.70;99.90;;;;;;5048787;28;20445;-50
2022/02/22 01:30:25;;;;;;;3.10;0.80;;;5.80;99.90;;;;;;5048413;28;20437;-48
2022/02/22 01:32:53;;;;;;;7.53;1.87;;;5.80;99.90;;;;;;5048016;28;20761;-46
2022/02/22 01:35:19;;;;;;;1.40;1.13;;;5.80;99.90;;;;;;5049063;28;20465;-47
2022/02/22 01:37:46;;;;;;;4.67;1.53;;;5.80;99.90;;;;;;5048302;28;20448;-48
2022/02/22 01:40:14;;;;;;;5.67;0.97;;;5.80;99.90;;;;;;5049646;28;20480;-43
2022/02/22 01:42:40;;;;;;;1.70;1.13;;;5.80;99.90;;;;;;5049217;28;20449;-44
2022/02/22 01:45:08;;;;;;;3.37;1.40;;;5.80;99.90;;;;;;5049665;28;20486;-44
2022/02/22 01:47:35;;;;;;;4.10;1.27;;;5.80;99.90;;;;;;5048376;28;20444;-48
2022/02/22 01:50:04;;;;;;;11.30;1.67;;;5.90;99.90;;;;;;5049635;28;20465;-49
2022/02/22 01:52:31;;;;;;;6.97;1.00;;;5.80;99.90;;;;;;5049449;28;20472;-43
2022/02/22 01:54:57;;;;;;;3.47;1.30;;;5.80;99.90;;;;;;5048132;28;20441;-45
2022/02/22 01:57:25;;;;;;;1.37;1.10;;;5.80;99.90;;;;;;5046646;28;20468;-50
2022/02/22 01:59:53;;;;;;;3.50;0.93;;;5.90;99.90;;;;;;5047037;28;20864;-48
2022/02/22 02:02:20;;;;;;;3.13;1.80;;;5.90;99.90;;;;;;5046976;28;20895;-45
2022/02/22 02:04:46;;;;;;;8.93;1.87;;;5.90;99.90;;;;;;5046657;28;20514;-45
2022/02/22 02:07:15;;;;;;;2.30;1.23;;;5.90;99.90;;;;;;5047104;28;20444;-48
2022/02/22 02:09:41;;;;;;;4.83;1.20;;;5.90;99.90;;;;;;5045964;28;20524;-49
2022/02/22 02:12:08;;;;;;;9.83;2.20;;;5.90;99.90;;;;;;5045790;28;20923;-48
2022/02/22 02:14:35;;;;;;;6.00;1.13;;;5.90;99.90;;;;;;5046376;28;20477;-43
2022/02/22 02:17:03;;;;;;;1.10;0.70;;;5.90;99.90;;;;;;5046882;28;20906;-47
2022/02/22 02:19:29;;;;;;;9.33;1.50;;;5.80;99.90;;;;;;5046944;28;20445;-47
2022/02/22 02:21:59;;;;;;;3.13;1.20;;;5.90;99.90;;;;;;5047010;28;20429;-49
2022/02/22 02:24:27;;;;;;;7.07;1.00;;;5.90;99.90;;;;;;5049020;28;20859;-45
2022/02/22 02:26:55;;;;;;;5.53;0.97;;;5.90;99.90;;;;;;5048061;28;20480;-48
2022/02/22 02:29:24;;;;;;;4.30;1.20;;;5.90;99.90;;;;;;5046480;28;20496;-45
2022/02/22 02:31:52;;;;;;;3.10;1.07;;;5.90;99.90;;;;;;5048995;28;20489;-52
2022/02/22 02:34:20;;;;;;;1.83;1.10;;;5.90;99.90;;;;;;5046962;28;20478;-48
2022/02/22 02:36:47;;;;;;;7.23;1.57;;;5.90;99.90;;;;;;5045499;28;20530;-46
2022/02/22 02:39:16;;;;;;;4.30;1.10;;;5.90;99.90;;;;;;5044756;28;20448;-45
2022/02/22 02:41:44;;;;;;;1.73;0.70;;;6.00;99.90;;;;;;5046321;28;20449;-46
2022/02/22 02:44:13;;;;;;;7.60;1.17;;;5.90;99.90;;;;;;5048786;28;20429;-47
2022/02/22 02:46:42;;;;;;;2.17;1.37;;;5.90;99.90;;;;;;5050231;28;20539;-46
2022/02/22 02:49:10;;;;;;;1.10;0.70;;;5.90;99.90;;;;;;5049948;28;20440;-48
2022/02/22 02:51:37;;;;;;;10.93;1.20;;;6.00;99.90;;;;;;5046212;28;20448;-48
2022/02/22 02:54:05;;;;;;;3.53;1.20;;;6.00;99.90;;;;;;5045295;28;20468;-50
2022/02/22 02:56:33;;;;;;;10.20;1.60;;;6.00;99.90;;;;;;5046475;28;20475;-48
2022/02/22 02:59:01;;;;;;;3.03;1.10;;;5.90;99.90;;;;;;5045959;28;20464;-47
2022/02/22 03:01:31;;;;;;;1.97;1.10;;;5.90;99.90;;;;;;5045901;28;20456;-43
2022/02/22 03:03:58;;;;;;;9.43;1.67;;;5.90;99.90;;;;;;5046054;28;20508;-46
2022/02/22 03:06:25;;;;;;;3.53;2.43;;;5.90;99.90;;;;;;5046846;28;20670;-46
2022/02/22 03:08:51;;;;;;;4.30;1.13;;;5.80;99.90;;;;;;5046507;28;20485;-46
2022/02/22 03:11:18;;;;;;;12.23;2.20;;;5.80;99.90;;;;;;5046708;28;20471;-46
2022/02/22 03:13:47;;;;;;;2.23;1.67;;;5.80;99.90;;;;;;5045701;28;20531;-45
2022/02/22 03:16:14;;;;;;;3.23;1.20;;;5.80;99.90;;;;;;5045317;28;20458;-49
2022/02/22 03:18:42;;;;;;;2.30;0.87;;;5.90;99.90;;;;;;5045203;28;20454;-48
2022/02/22 03:21:09;;;;;;;10.10;1.50;;;5.90;99.90;;;;;;5044403;28;20509;-44
2022/02/22 03:23:36;;;;;;;4.30;1.87;;;5.90;99.90;;;;;;5047037;28;20449;-46
2022/02/22 03:26:02;;;;;;;8.73;1.20;;;5.80;99.90;;;;;;5047988;28;20490;-46
2022/02/22 03:28:29;;;;;;;2.40;0.90;;;5.80;99.90;;;;;;5046203;28;20430;-46
2022/02/22 03:30:57;;;;;;;1.20;0.90;;;5.90;99.90;;;;;;5045697;28;20447;-42
2022/02/22 03:33:24;;;;;;;1.83;0.70;;;5.90;99.90;;;;;;5047251;28;20437;-49
2022/02/22 03:35:51;;;;;;;4.00;1.37;;;5.90;99.90;;;;;;5049186;28;20545;-49
2022/02/22 03:38:18;;;;;;;2.70;1.03;;;5.80;99.90;;;;;;5050036;28;20507;-47
2022/02/22 03:40:44;;;;;;;2.10;1.03;;;5.80;99.90;;;;;;5047993;28;20474;-47
2022/02/22 03:43:11;;;;;;;4.57;1.20;;;5.80;99.90;;;;;;5047584;28;20496;-48
2022/02/22 03:45:38;;;;;;;4.57;1.03;;;5.80;99.90;;;;;;5047105;28;20465;-47
2022/02/22 03:48:06;;;;;;;4.57;1.20;;;5.80;99.90;;;;;;5046379;28;20445;-48
2022/02/22 03:50:33;;;;;;;3.70;1.33;;;5.80;99.90;;;;;;5048284;28;20474;-49
2022/02/22 03:53:00;;;;;;;3.00;1.00;;;5.80;99.90;;;;;;5048109;28;20470;-47
2022/02/22 03:55:27;;;;;;;6.53;1.83;;;5.80;99.90;;;;;;5046483;28;20488;-49
2022/02/22 03:57:54;;;;;;;7.30;1.60;;;5.80;99.90;;;;;;5045729;28;20483;-45
2022/02/22 04:00:23;;;;;;;2.90;1.20;;;5.90;99.90;;;;;;5044775;28;20495;-51
2022/02/22 04:02:50;;;;;;;2.00;0.90;;;5.90;99.90;;;;;;5046558;28;20476;-47
2022/02/22 04:05:20;;;;;;;6.17;1.70;;;5.90;99.90;;;;;;5047541;28;20468;-49
2022/02/22 04:07:47;;;;;;;3.33;2.20;;;5.80;99.90;;;;;;5047635;28;20485;-48
2022/02/22 04:10:14;;;;;;;1.90;1.10;;;5.80;99.90;;;;;;5046889;28;20502;-46
2022/02/22 04:12:41;;;;;;;4.77;1.70;;;5.80;99.90;;;;;;5048086;28;20469;-48
2022/02/22 04:15:10;;;;;;;3.40;1.83;;;5.80;99.90;;;;;;5047960;28;20437;-49
2022/02/22 04:17:36;;;;;;;13.30;1.77;;;5.70;99.90;;;;;;5046717;28;20466;-48
2022/02/22 04:20:04;;;;;;;4.80;1.60;;;5.80;99.90;;;;;;5046639;28;20471;-46
2022/02/22 04:22:32;;;;;;;8.83;1.83;;;5.80;99.90;;;;;;5045471;28;20464;-48
2022/02/22 04:24:59;;;;;;;5.33;2.23;;;5.80;99.90;;;;;;5046517;28;20473;-48
2022/02/22 04:27:26;;;;;;;6.87;1.93;;;5.80;99.90;;;;;;5050642;28;20511;-45
2022/02/22 04:29:53;;;;;;;10.87;1.07;;;5.80;99.90;;;;;;5052662;28;20442;-46
2022/02/22 04:32:19;;;;;;;22.13;7.07;;;5.90;99.90;;;;;;5049550;28;20449;-45
2022/02/22 04:34:46;;;;;;;3.67;2.30;;;5.90;99.90;;;;;;5050539;28;20462;-47
2022/02/22 04:37:15;;;;;;;9.60;2.43;;;5.90;99.90;;;;;;5050051;28;20452;-46
2022/02/22 04:39:46;;;;;;;4.33;1.80;;;5.90;99.90;;;;;;5048041;28;20468;-47
2022/02/22 04:42:13;;;;;;;18.43;2.77;;;5.90;99.90;;;;;;5047825;28;20433;-50
2022/02/22 04:44:40;;;;;;;10.13;2.20;;;5.90;99.90;;;;;;5048457;28;20475;-49
2022/02/22 04:47:07;;;;;;;10.90;1.30;;;5.90;99.90;;;;;;5048452;28;20486;-46
2022/02/22 04:49:34;;;;;;;14.50;2.80;;;5.90;99.90;;;;;;5049474;28;20442;-51
2022/02/22 04:52:01;;;;;;;9.33;2.40;;;5.80;99.90;;;;;;5048688;28;20742;-49
2022/02/22 04:54:27;;;;;;;8.43;1.77;;;5.80;99.90;;;;;;5049168;28;20446;-47
2022/02/22 04:56:55;;;;;;;12.30;2.23;;;5.70;99.90;;;;;;5051008;28;20468;-54
2022/02/22 04:59:24;;;;;;;14.90;2.27;;;5.70;99.90;;;;;;5051922;28;20457;-48
2022/02/22 05:01:53;;;;;;;4.87;1.30;;;5.70;99.90;;;;;;5049070;28;20471;-46
2022/02/22 05:04:20;;;;;;;3.70;1.23;;;5.70;99.90;;;;;;5049487;28;20444;-47
2022/02/22 05:06:47;;;;;;;7.17;1.60;;;5.70;99.90;;;;;;5048173;28;20550;-49
2022/02/22 05:09:13;;;;;;;7.70;1.70;;;5.70;99.90;;;;;;5049420;28;20511;-46
2022/02/22 05:11:40;;;;;;;7.00;0.77;;;5.70;99.90;;;;;;5048915;28;20433;-47
2022/02/22 05:14:08;;;;;;;8.03;1.73;;;5.70;99.90;;;;;;5051095;28;20532;-47
2022/02/22 05:16:37;;;;;;;15.80;2.20;;;5.60;99.90;;;;;;5049330;28;20437;-43
2022/02/22 05:19:04;;;;;;;8.70;2.43;;;5.60;99.90;;;;;;5049436;28;20543;-47
2022/02/22 05:21:30;;;;;;;14.93;2.70;;;5.60;99.90;;;;;;5050510;28;20475;-47
2022/02/22 05:23:57;;;;;;;4.90;1.80;;;5.60;99.90;;;;;;5051780;28;20480;-51
2022/02/22 05:26:24;;;;;;;11.67;1.90;;;5.50;99.90;;;;;;5049447;28;20495;-47
2022/02/22 05:28:51;;;;;;;13.43;1.50;;;5.60;99.90;;;;;;5048391;28;21015;-51
2022/02/22 05:31:19;;;;;;;2.00;0.90;;;5.50;99.90;;;;;;5049020;28;20522;-48
2022/02/22 05:33:46;;;;;;;16.90;2.10;;;5.50;99.90;;;;;;5048648;28;20444;-47
2022/02/22 05:36:13;;;;;;;9.27;1.80;;;5.40;99.90;;;;;;5048614;28;20462;-45
2022/02/22 05:38:40;;;;;;;5.60;1.77;;;5.40;99.90;;;;;;5047100;28;20452;-47
2022/02/22 05:41:07;;;;;;;7.37;1.93;;;5.50;99.90;;;;;;5049356;28;20476;-54
2022/02/22 05:43:34;;;;;;;14.27;3.50;;;5.50;99.90;;;;;;5052987;28;20434;-49
2022/02/22 05:46:01;;;;;;;9.13;2.00;;;5.40;99.90;;;;;;5050347;28;20473;-50
2022/02/22 05:48:29;;;;;;;4.67;1.83;;;5.50;99.90;;;;;;5052295;28;20453;-47
2022/02/22 05:50:55;;;;;;;4.47;1.43;;;5.50;99.90;;;;;;5051605;28;20434;-54
2022/02/22 05:53:22;;;;;;;4.83;2.33;;;5.50;99.90;;;;;;5052716;28;20433;-51
2022/02/22 05:55:49;;;;;;;2.33;2.13;;;5.50;99.90;;;;;;5053152;28;20447;-52
2022/02/22 05:58:15;;;;;;;6.83;2.70;;;5.50;99.90;;;;;;5053448;28;20451;-47
2022/02/22 06:00:42;;;;;;;6.73;2.57;;;5.50;99.90;;;;;;5054559;28;20479;-54
2022/02/22 06:03:09;;;;;;;7.67;2.20;;;5.50;99.90;;;;;;5073317;28;20503;-48
2022/02/22 06:05:37;;;;;;;15.63;3.50;;;5.50;99.90;;;;;;5074224;28;20503;-47
2022/02/22 06:08:04;;;;;;;8.43;2.20;;;5.40;99.90;;;;;;5073532;28;20496;-52
2022/02/22 06:10:31;;;;;;;7.60;2.40;;;5.40;99.90;;;;;;5072063;28;20975;-49
2022/02/22 06:12:57;;;;;;;7.23;2.00;;;5.40;99.90;;;;;;5072453;28;20544;-49
2022/02/22 06:15:24;;;;;;;3.63;1.27;;;5.40;99.90;;;;;;5067134;28;20474;-56
2022/02/22 06:17:51;;;;;;;7.53;1.93;;;5.50;99.90;;;;;;5054368;28;20520;-50
2022/02/22 06:20:18;;;;;;;11.00;3.13;;;5.50;99.90;;;;;;5052644;28;20933;-49
2022/02/22 06:22:46;;;;;;;7.13;2.03;;;5.50;99.90;;;;;;5053405;28;20472;-52
2022/02/22 06:25:13;;;;;;;8.37;2.40;;;5.50;99.90;;;;;;5053182;28;20540;-55
2022/02/22 06:27:47;;;;;;;6.70;1.97;;;5.50;99.90;;;;;;5053113;28;20477;-48
2022/02/22 06:30:14;;;;;;;2.60;1.57;;;5.50;99.90;;;;;;5053318;28;20471;-49
2022/02/22 06:32:41;;;;;;;3.43;1.40;;;5.50;99.90;;;;;;5053017;28;20926;-52
2022/02/22 06:35:08;;;;;;;8.50;2.40;;;5.40;99.90;;;;;;5051986;28;20475;-54
2022/02/22 06:37:35;;;;;;;12.47;2.87;;;5.50;99.90;;;;;;5052202;28;20919;-48
2022/02/22 06:40:05;;;;;;;15.73;2.13;;;5.50;99.90;;;;;;5052622;28;20440;-50
2022/02/22 06:42:32;;;;;;;6.83;1.90;;;5.50;99.90;;;;;;5053114;28;20452;-50
2022/02/22 06:44:59;;;;;;;5.67;1.03;;;5.50;99.90;;;;;;5053024;28;20452;-51
2022/02/22 06:47:25;;;;;;;13.90;2.43;;;5.50;99.90;;;;;;5043579;28;20578;-53
2022/02/22 06:49:52;;;;;;;8.83;1.93;;;5.40;99.90;;;;;;5034200;28;20510;-53
2022/02/22 06:52:20;;;;;;;3.93;1.97;;;5.40;99.90;;;;;;5034574;28;20953;-55
2022/02/22 06:54:47;;;;;;;7.73;3.10;;;5.40;99.90;;;;;;5034921;28;20444;-47
2022/02/22 06:57:15;;;;;;;5.37;3.17;;;5.40;99.90;;;;;;5034926;28;20444;-64
2022/02/22 06:59:43;;;;;;;4.30;1.87;;;5.50;99.90;;;;;;5034767;28;20890;-53
2022/02/22 07:02:10;;;;;;;16.33;2.80;;;5.60;99.90;;;;;;5034715;28;20521;-48
2022/02/22 07:04:36;;;;;;;10.03;2.73;;;5.60;99.90;;;;;;5034867;28;20503;-49
2022/02/22 07:07:06;;;;;;;5.73;2.13;;;5.60;99.90;;;;;;5034608;28;20487;-52
2022/02/22 07:09:33;;;;;;;10.07;2.20;;;5.50;99.90;;;;;;5034186;28;20961;-50
2022/02/22 07:12:00;;;;;;;5.43;3.03;;;5.50;99.90;;;;;;5034852;28;20444;-53
2022/02/22 07:14:26;;;;;;;7.93;2.60;;;5.50;99.90;;;;;;5034218;28;20488;-54
2022/02/22 07:16:55;;;;;;;8.33;3.20;;;5.50;99.90;;;;;;5034658;28;20431;-55
2022/02/22 07:19:21;;;;;;;9.30;2.30;;;5.50;99.90;;;;;;5034597;28;20603;-54
2022/02/22 07:21:48;;;;;;;4.90;1.93;;;5.40;99.90;;;;;;5034665;28;20462;-52
2022/02/22 07:24:15;;;;;;;10.90;2.23;;;5.40;99.90;;;;;;5034558;28;20461;-55
2022/02/22 07:26:41;;;;;;;18.60;3.20;;;5.40;99.90;;;;;;5034735;28;20496;-54
2022/02/22 07:29:08;;;;;;;8.00;3.10;;;5.30;99.90;;;;;;5034633;28;20441;-51
2022/02/22 07:31:35;;;;;;;8.60;4.20;;;5.30;99.90;;;;;;5034352;28;20538;-58
2022/02/22 07:34:03;;;;;;;9.50;1.90;;;5.30;99.90;;;;;;5034418;28;20434;-56
2022/02/22 07:36:30;;;;;;;4.70;1.37;;;5.40;99.90;;;;;;5034184;28;20444;-52
2022/02/22 07:38:57;;;;;;;4.80;1.77;;;5.50;99.90;;;;;;5034475;28;20447;-52
2022/02/22 07:41:24;;;;;;;6.97;2.57;;;5.60;99.90;;;;;;5034141;28;20463;-49
2022/02/22 07:43:51;;;;;;;14.80;2.17;;;5.50;99.90;;;;;;5034678;28;20471;-53
2022/02/22 07:46:18;;;;;;;6.27;1.70;;;5.50;99.90;;;;;;5034360;28;20769;-49
2022/02/22 07:48:45;;;;;;;11.10;2.80;;;5.50;99.90;;;;;;5034471;28;20503;-49
2022/02/22 07:51:16;;;;;;;26.43;2.87;;;5.60;99.90;;;;;;5034616;28;20442;-54
2022/02/22 07:53:43;;;;;;;8.03;2.40;;;5.60;99.90;;;;;;5034274;28;20929;-49
2022/02/22 07:56:10;;;;;;;12.33;2.90;;;5.60;99.90;;;;;;5034488;28;20451;-50
2022/02/22 07:58:38;;;;;;;4.77;2.40;;;5.50;99.90;;;;;;5034569;28;20826;-49
2022/02/22 08:01:05;;;;;;;13.00;3.23;;;5.50;99.90;;;;;;5036472;28;20480;-53
2022/02/22 08:03:31;;;;;;;3.67;1.00;;;5.50;99.90;;;;;;5038426;28;20471;-56
2022/02/22 08:05:58;;;;;;;9.83;2.00;;;5.60;99.90;;;;;;5038301;28;20513;-51
2022/02/22 08:08:26;;;;;;;6.53;2.10;;;5.40;99.90;;;;;;5038243;28;20492;-51
2022/02/22 08:10:53;;;;;;;11.70;1.70;;;5.40;99.90;;;;;;5038387;28;20475;-51
2022/02/22 08:13:20;;;;;;;9.13;2.07;;;5.50;99.90;;;;;;5038555;28;20485;-58
2022/02/22 08:15:46;;;;;;;7.20;1.27;;;5.50;99.90;;;;;;5038189;28;20514;-53
2022/02/22 08:18:13;;;;;;;9.00;1.83;;;5.60;99.90;;;;;;5037898;28;20598;-51
2022/02/22 08:20:41;;;;;;;5.23;1.70;;;5.70;99.90;;;;;;5037980;28;20528;-46
2022/02/22 08:23:08;;;;;;;11.00;2.47;;;5.70;99.90;;;;;;5037866;28;20476;-57
2022/02/22 08:25:36;;;;;;;11.77;1.40;;;5.80;99.90;;;;;;5037950;28;20476;-51
2022/02/22 08:28:08;;;;;;;6.20;2.10;;;5.80;99.90;;;;;;5037534;28;20570;-56
2022/02/22 08:30:38;;;;;;;11.50;2.00;;;5.90;99.90;;;;;;5037829;28;20487;-49
2022/02/22 08:33:06;;;;;;;5.97;2.70;;;5.80;99.90;;;;;;5037664;28;20473;-52
2022/02/22 08:35:32;;;;;;;5.80;1.60;;;5.80;99.90;;;;;;5037617;28;20545;-48
2022/02/22 08:37:59;;;;;;;6.57;2.67;;;5.80;99.90;;;;;;5037862;28;20477;-49
2022/02/22 08:40:26;;;;;;;17.60;2.23;;;5.80;99.90;;;;;;5037706;28;20432;-53
2022/02/22 08:42:54;;;;;;;8.63;1.90;;;5.80;99.90;;;;;;5037502;28;20496;-55
2022/02/22 08:45:21;;;;;;;11.40;1.77;;;5.80;99.90;;;;;;5037462;28;20455;-52
2022/02/22 08:47:48;;;;;;;3.00;1.20;;;5.80;99.90;;;;;;5037216;28;20790;-54
2022/02/22 08:50:15;;;;;;;5.23;1.97;;;5.80;99.90;;;;;;5037473;28;20468;-52
2022/02/22 08:52:41;;;;;;;4.70;1.37;;;5.80;99.90;;;;;;5037056;28;20498;-54
2022/02/22 08:55:09;;;;;;;4.43;1.30;;;6.00;99.90;;;;;;5037307;28;20498;-53
2022/02/22 08:57:36;;;;;;;8.53;1.70;;;6.10;99.90;;;;;;5037313;28;20539;-51
2022/02/22 09:00:09;;;;;;;6.37;2.13;;;6.20;99.90;;;;;;5037347;28;20526;-56
2022/02/22 09:02:36;;;;;;;3.77;1.80;;;6.30;99.90;;;;;;5037639;28;20433;-54
2022/02/22 09:05:03;;;;;;;2.50;1.60;;;6.40;99.90;;;;;;5037264;28;20582;-51
2022/02/22 09:07:30;;;;;;;15.00;2.10;;;6.50;99.90;;;;;;5037207;28;20837;-52
2022/02/22 09:09:57;;;;;;;7.50;1.60;;;6.50;99.90;;;;;;5036844;28;20472;-53
2022/02/22 09:12:24;;;;;;;5.83;1.17;;;6.50;99.90;;;;;;5036264;28;20484;-55
2022/02/22 09:14:51;;;;;;;9.20;3.17;;;6.60;99.90;;;;;;5036882;28;20465;-52
2022/02/22 09:17:19;;;;;;;4.03;1.50;;;6.50;99.90;;;;;;5036883;28;20454;-52
2022/02/22 09:19:46;;;;;;;2.37;1.10;;;6.50;99.90;;;;;;5036880;28;20548;-52
2022/02/22 09:22:13;;;;;;;10.23;1.53;;;6.40;99.90;;;;;;5037361;28;20447;-56
2022/02/22 09:24:39;;;;;;;6.30;1.40;;;6.40;99.90;;;;;;5036884;28;20458;-54
2022/02/22 09:27:06;;;;;;;5.83;1.10;;;6.50;99.90;;;;;;5036632;28;20470;-52
2022/02/22 09:29:33;;;;;;;5.47;1.40;;;6.50;99.90;;;;;;5036774;28;20473;-58
2022/02/22 09:32:00;;;;;;;2.20;2.00;;;6.50;99.90;;;;;;5036506;28;20460;-57
2022/02/22 09:34:28;;;;;;;5.70;1.23;;;6.30;99.90;;;;;;5036613;28;20485;-49
2022/02/22 09:37:02;;;;;;;11.40;1.83;;;6.40;99.90;;;;;;5036367;28;20452;-58
2022/02/22 09:39:29;;;;;;;3.70;1.10;;;6.50;99.90;;;;;;5036437;28;20490;-55
2022/02/22 09:41:55;;;;;;;3.23;1.40;;;6.60;99.90;;;;;;5036451;28;20465;-50
2022/02/22 09:44:22;;;;;;;3.43;1.10;;;6.60;99.90;;;;;;5036207;28;20821;-52
2022/02/22 09:46:50;;;;;;;2.43;0.90;;;6.70;99.90;;;;;;5036380;28;20449;-53
2022/02/22 09:49:17;;;;;;;12.80;2.00;;;6.80;99.90;;;;;;5036373;28;20505;-54
2022/02/22 09:51:45;;;;;;;5.10;1.43;;;6.90;99.90;;;;;;5036182;28;20463;-49
2022/02/22 09:54:12;;;;;;;11.70;1.67;;;7.10;99.90;;;;;;5036089;28;20576;-50
2022/02/22 09:56:42;;;;;;;3.87;1.53;;;7.30;99.90;;;;;;5036289;28;20450;-53
2022/02/22 09:59:10;;;;;;;6.37;1.87;;;7.90;99.90;;;;;;5036328;28;20483;-55
2022/02/22 10:01:41;;;;;;;15.03;2.20;;;9.10;99.90;;;;;;5036092;28;20551;-45
2022/02/22 10:04:09;;;;;;;6.13;1.90;;;9.90;99.90;;;;;;5036260;28;20499;-51
2022/02/22 10:06:37;;;;;;;4.50;1.80;;;10.00;99.90;;;;;;5036005;28;20467;-49
2022/02/22 10:09:09;;;;;;;3.20;1.40;;;10.40;99.90;;;;;;5035858;28;20492;-52
2022/02/22 10:11:45;;;;;;;7.30;2.10;;;10.20;99.90;;;;;;5036211;28;20773;-50
2022/02/22 10:14:23;;;;;;;7.07;1.53;;;9.80;99.90;;;;;;5035934;28;20475;-55
2022/02/22 10:16:51;;;;;;;8.63;2.10;;;9.40;99.90;;;;;;5035930;28;20479;-52
2022/02/22 10:19:18;;;;;;;6.60;1.83;;;9.40;99.90;;;;;;5035526;28;20555;-50
2022/02/22 10:21:51;;;;;;;5.43;1.33;;;9.10;99.90;;;;;;5035761;28;20447;-54
2022/02/22 10:24:24;;;;;;;5.87;1.30;;;8.70;99.90;;;;;;5035477;28;20935;-53
2022/02/22 10:27:00;;;;;;;6.50;1.83;;;8.40;99.90;;;;;;5035399;28;20449;-52
2022/02/22 10:29:29;;;;;;;4.23;2.00;;;7.90;99.90;;;;;;5035428;28;20587;-52
2022/02/22 10:31:56;;;;;;;6.20;1.97;;;7.60;99.90;;;;;;5035377;28;20517;-51
2022/02/22 10:34:32;;;;;;;9.30;1.97;;;7.50;99.90;;;;;;5035436;28;20467;-52
2022/02/22 10:36:59;;;;;;;8.33;1.80;;;7.40;99.90;;;;;;5035251;28;20762;-55
2022/02/22 10:39:27;;;;;;;10.50;4.10;;;7.30;99.90;;;;;;5035285;28;20464;-50
2022/02/22 10:41:56;;;;;;;9.07;2.37;;;7.70;99.90;;;;;;5035539;28;20451;-54
2022/02/22 10:44:29;;;;;;;2.80;1.07;;;7.70;99.90;;;;;;5035014;28;20977;-49
2022/02/22 10:46:57;;;;;;;4.67;2.30;;;7.60;99.90;;;;;;5035133;28;20452;-56
2022/02/22 10:49:25;;;;;;;5.43;1.30;;;7.40;99.90;;;;;;5034999;28;20519;-53
2022/02/22 10:51:52;;;;;;;9.10;1.33;;;7.40;99.90;;;;;;5035110;28;20554;-48
2022/02/22 10:54:21;;;;;;;6.80;1.60;;;7.40;99.90;;;;;;5035464;28;20769;-50
2022/02/22 10:56:50;;;;;;;3.60;1.80;;;7.30;99.90;;;;;;5035349;28;20853;-57
2022/02/22 10:59:18;;;;;;;3.87;1.60;;;7.30;99.90;;;;;;5034945;28;20803;-54
2022/02/22 11:01:45;;;;;;;2.30;1.40;;;7.30;99.90;;;;;;5035119;28;20468;-50
2022/02/22 11:04:12;;;;;;;9.17;2.53;;;7.30;99.90;;;;;;5035539;28;20468;-52
2022/02/22 11:06:39;;;;;;;12.20;2.17;;;7.30;99.90;;;;;;5036183;28;20437;-57
2022/02/22 11:09:08;;;;;;;7.07;1.63;;;7.30;99.90;;;;;;5035068;28;20480;-54
2022/02/22 11:11:37;;;;;;;5.13;1.57;;;7.40;99.90;;;;;;5035077;28;20438;-54
2022/02/22 11:14:07;;;;;;;6.10;1.90;;;7.40;99.90;;;;;;5034681;28;20477;-54
2022/02/22 11:16:46;;;;;;;5.53;2.40;;;7.40;99.90;;;;;;5035252;28;20443;-55
2022/02/22 11:19:15;;;;;;;2.27;1.43;;;7.30;99.90;;;;;;5035171;28;20433;-49
2022/02/22 11:21:42;;;;;;;11.30;1.90;;;7.30;99.90;;;;;;5035123;28;20437;-55
2022/02/22 11:24:11;;;;;;;5.30;1.70;;;7.40;99.90;;;;;;5034862;28;20460;-49
2022/02/22 11:26:52;;;;;;;3.23;1.00;;;7.90;99.90;;;;;;5035114;28;20435;-50
2022/02/22 11:29:21;;;;;;;5.13;1.27;;;8.20;99.90;;;;;;5034744;28;20464;-48
2022/02/22 11:32:01;;;;;;;8.97;3.00;;;8.50;99.90;;;;;;5035058;28;20865;-53
2022/02/22 11:34:31;;;;;;;5.57;1.57;;;8.60;99.90;;;;;;5035182;28;20471;-52
2022/02/22 11:36:59;;;;;;;27.83;2.73;;;8.40;99.90;;;;;;5038347;28;20910;-47
2022/02/22 11:39:26;;;;;;;3.43;1.80;;;8.30;99.90;;;;;;5039259;28;20453;-54
2022/02/22 11:41:53;;;;;;;12.13;1.73;;;8.30;99.90;;;;;;5040126;28;20538;-49
2022/02/22 11:44:26;;;;;;;5.03;1.37;;;8.50;99.90;;;;;;5039584;28;20506;-55
2022/02/22 11:46:54;;;;;;;4.53;1.30;;;8.50;99.90;;;;;;5039334;28;20562;-51
2022/02/22 11:49:25;;;;;;;4.87;2.43;;;8.30;99.90;;;;;;5039023;28;20542;-48
2022/02/22 11:52:08;;;;;;;5.57;1.33;;;8.20;99.90;;;;;;5039343;28;20525;-51
2022/02/22 11:54:36;;;;;;;3.30;1.00;;;8.20;99.90;;;;;;5038674;28;20500;-57
2022/02/22 11:57:05;;;;;;;3.53;1.33;;;8.30;99.90;;;;;;5038818;28;20499;-54
2022/02/22 11:59:45;;;;;;;6.27;1.70;;;8.40;99.90;;;;;;5038499;28;20463;-53
2022/02/22 12:02:12;;;;;;;12.60;2.00;;;8.40;99.90;;;;;;5038413;28;20448;-55
2022/02/22 12:04:44;;;;;;;11.00;1.90;;;8.40;99.90;;;;;;5038437;28;20765;-55
2022/02/22 12:07:11;;;;;;;5.87;1.40;;;8.20;99.90;;;;;;5038629;28;20453;-57
2022/02/22 12:09:39;;;;;;;6.13;1.33;;;8.20;99.90;;;;;;5038320;28;20484;-54
2022/02/22 12:12:08;;;;;;;6.80;1.67;;;8.40;99.90;;;;;;5038618;28;20434;-58
2022/02/22 12:14:36;;;;;;;5.00;1.57;;;8.40;99.90;;;;;;5038325;28;20514;-55
2022/02/22 12:17:06;;;;;;;6.77;1.73;;;8.40;99.90;;;;;;5038211;28;20438;-49
2022/02/22 12:19:33;;;;;;;5.80;1.07;;;8.40;99.90;;;;;;5037996;28;20454;-56
2022/02/22 12:21:59;;;;;;;6.33;2.10;;;8.30;99.90;;;;;;5038128;28;20434;-55
2022/02/22 12:24:26;;;;;;;3.27;1.70;;;8.10;99.90;;;;;;5037985;28;20527;-61
2022/02/22 12:26:53;;;;;;;20.00;2.73;;;8.10;99.90;;;;;;5037998;28;20446;-57
2022/02/22 12:29:23;;;;;;;6.03;2.77;;;8.10;99.90;;;;;;5038779;28;20527;-63
2022/02/22 12:31:55;;;;;;;2.90;1.57;;;8.10;99.90;;;;;;5039755;28;20784;-56
2022/02/22 12:34:24;;;;;;;11.20;2.13;;;8.10;99.90;;;;;;5037970;28;20853;-54
2022/02/22 12:36:55;;;;;;;12.43;2.10;;;8.00;99.90;;;;;;5037759;28;20787;-55
2022/02/22 12:39:24;;;;;;;8.80;1.53;;;7.90;99.90;;;;;;5037678;28;20452;-58
2022/02/22 12:41:55;;;;;;;6.30;2.07;;;8.00;99.90;;;;;;5038061;28;20485;-53
2022/02/22 12:44:26;;;;;;;8.93;1.87;;;8.10;99.90;;;;;;5037836;28;20462;-54
2022/02/22 12:47:01;;;;;;;7.50;2.30;;;8.30;99.90;;;;;;5036760;28;20440;-55
2022/02/22 12:49:29;;;;;;;2.80;1.30;;;8.30;99.90;;;;;;5037525;28;20522;-56
2022/02/22 12:52:02;;;;;;;5.20;2.33;;;8.30;99.90;;;;;;5037800;28;20571;-52
2022/02/22 12:54:31;;;;;;;8.80;1.93;;;8.40;99.90;;;;;;5037448;28;20489;-55
2022/02/22 12:57:00;;;;;;;9.00;3.07;;;8.50;99.90;;;;;;5037305;28;21072;-59
2022/02/22 12:59:32;;;;;;;12.23;2.10;;;8.50;99.90;;;;;;5037358;28;20459;-52